Blountstown, Florida
Current Conditions -  °F | °C
As of 6:53 AM on Wednesday 22 Oct 2014 (Local Time) from KMAI Reporting Station
Clear Clear  
Wind Chill: 51°   Ceiling: Unl
Heat Index: 51°   Visibility: 10mi
Dew Point: 51°   Wind: 0mph
Humidity: 100%   Direction: NA
Pressure: 30.04"   Gusts: NA
Location:  30.44°N, 85.05°W
Report Text: KMAI 221153Z AUTO 00000KT 10SM CLR 11/11 A3004 RMK AO2 RAE44 SLP172 P0000 6//// 7//// T01060106 10139 20106 51014 $
Loading
Personal Weather Stations






























Interactive Weather Map
Tropical Storm Tracking
New forecast layout! Learn more

10-Day Weather Forecast

Advertisements
Track Severe Weather on mobile